Time;durP1;ratioP1;P1;durP2;ratioP2;P2;SDS_P1;SDS_P2;PMS_P1;PMS_P2;Temp;Humidity;BMP_temperature;BMP_pressure;BME280_temperature;BME280_humidity;BME280_pressure;Samples;Min_cycle;Max_cycle;Signal;HPM_P1;HPM_P2
2023/12/17 07:59:28;;;;;;;;;;;;;;;6.96;66.22;99121.19;4193546;28;10287;-62
2023/12/17 08:01:32;;;;;;;;;;;;;;;7.25;65.75;99124.28;4188632;28;5765;-62
2023/12/17 08:03:36;;;;;;;;;;;;;;;7.49;65.38;99124.22;4193447;28;5787;-61
2023/12/17 08:05:39;;;;;;;;;;;;;;;7.70;65.03;99128.75;4196002;28;5838;-62
2023/12/17 08:07:42;;;;;;;;;;;;;;;7.85;64.46;99127.59;4191551;28;5720;-63
2023/12/17 08:09:45;;;;;;;;;;;;;;;7.98;64.17;99123.03;4194556;28;5935;-63
2023/12/17 08:11:48;;;;;;;;;;;;;;;8.07;63.52;99124.13;4191944;28;5815;-62
2023/12/17 08:13:51;;;;;;;;;;;;;;;8.14;63.65;99125.31;4188400;28;5941;-63
2023/12/17 08:15:55;;;;;;;;;;;;;;;8.21;63.57;99123.88;4194803;28;6538;-63
2023/12/17 08:17:57;;;;;;;;;;;;;;;8.25;62.92;99121.81;4195797;28;5713;-63
2023/12/17 08:20:00;;;;;;;;;;;;;;;8.28;63.01;99122.44;4195224;28;5717;-63
2023/12/17 08:22:04;;;;;;;;;;;;;;;8.29;62.72;99120.63;4195506;28;5825;-62
2023/12/17 08:24:07;;;;;;;;;;;;;;;8.32;62.79;99121.22;4196444;28;5596;-62
2023/12/17 08:26:11;;;;;;;;;;;;;;;8.35;62.58;99115.72;4196322;28;7080;-62
2023/12/17 08:28:14;;;;;;;;;;;;;;;8.35;62.12;99121.00;4194280;28;5701;-62
2023/12/17 08:30:18;;;;;;;;;;;;;;;8.35;62.25;99118.38;4194587;28;5856;-62
2023/12/17 08:32:23;;;;;;;;;;;;;;;8.36;61.80;99114.78;4185530;28;5995;-62
2023/12/17 08:34:29;;;;;;;;;;;;;;;8.42;61.74;99118.72;4192226;28;5827;-62
2023/12/17 08:36:32;;;;;;;;;;;;;;;8.43;61.60;99120.41;4188751;28;5816;-63
2023/12/17 08:38:35;;;;;;;;;;;;;;;8.43;61.60;99128.31;4194382;28;5821;-63
2023/12/17 08:40:39;;;;;;;;;;;;;;;8.43;61.39;99123.03;4196206;28;5867;-63
2023/12/17 08:42:42;;;;;;;;;;;;;;;8.42;61.43;99121.38;4196104;28;5753;-63
2023/12/17 08:44:47;;;;;;;;;;;;;;;8.44;61.15;99124.72;4196060;28;5721;-62
2023/12/17 08:46:51;;;;;;;;;;;;;;;8.46;60.99;99117.50;4197571;28;5799;-62
2023/12/17 08:48:55;;;;;;;;;;;;;;;8.48;61.19;99120.03;4192327;28;5847;-63
2023/12/17 08:50:58;;;;;;;;;;;;;;;8.47;60.67;99129.72;4193207;28;6545;-62
2023/12/17 08:53:01;;;;;;;;;;;;;;;8.46;60.83;99122.78;4193366;28;5724;-62
2023/12/17 08:55:05;;;;;;;;;;;;;;;8.46;60.52;99118.34;4194930;28;6239;-62
2023/12/17 08:57:08;;;;;;;;;;;;;;;8.44;60.24;99124.72;4194138;28;8502;-62
2023/12/17 08:59:12;;;;;;;;;;;;;;;8.43;60.10;99125.66;4186745;28;5795;-62
2023/12/17 09:01:16;;;;;;;;;;;;;;;8.36;59.89;99124.47;4179813;28;5804;-63
2023/12/17 09:03:20;;;;;;;;;;;;;;;8.35;59.84;99130.72;4182335;28;5724;-63
2023/12/17 09:05:24;;;;;;;;;;;;;;;8.31;59.80;99123.97;4183731;28;5252;-63
2023/12/17 09:07:27;;;;;;;;;;;;;;;8.30;59.66;99122.31;4174830;28;7787;-63
2023/12/17 09:09:30;;;;;;;;;;;;;;;8.29;59.81;99131.19;4182726;28;5705;-63
2023/12/17 09:11:33;;;;;;;;;;;;;;;8.30;59.67;99132.84;4178200;28;5729;-63
2023/12/17 09:13:36;;;;;;;;;;;;;;;8.33;59.61;99136.06;4184415;28;5724;-63
2023/12/17 09:15:41;;;;;;;;;;;;;;;8.39;59.28;99135.63;4184632;28;5735;-63
2023/12/17 09:17:44;;;;;;;;;;;;;;;8.41;59.31;99141.63;4180268;28;5930;-63
2023/12/17 09:19:48;;;;;;;;;;;;;;;8.40;58.99;99133.84;4185536;28;5721;-63
2023/12/17 09:21:52;;;;;;;;;;;;;;;8.42;59.09;99132.75;4184072;28;5724;-63
2023/12/17 09:23:56;;;;;;;;;;;;;;;8.36;58.82;99135.03;4183681;28;5721;-64
2023/12/17 09:26:00;;;;;;;;;;;;;;;8.39;58.88;99140.06;4183464;28;5717;-63
2023/12/17 09:28:04;;;;;;;;;;;;;;;8.44;59.04;99151.06;4180143;28;6418;-64
2023/12/17 09:30:09;;;;;;;;;;;;;;;8.46;59.05;99149.16;4184371;28;5803;-64
2023/12/17 09:32:12;;;;;;;;;;;;;;;8.45;58.83;99150.09;4184779;28;5709;-62
2023/12/17 09:34:15;;;;;;;;;;;;;;;8.43;58.69;99152.88;4185210;28;5869;-62
2023/12/17 09:36:19;;;;;;;;;;;;;;;8.44;58.50;99145.78;4185499;28;5710;-63
2023/12/17 09:38:23;;;;;;;;;;;;;;;8.48;58.69;99141.94;4185460;28;5721;-63
2023/12/17 09:40:26;;;;;;;;;;;;;;;8.51;58.34;99141.72;4184674;28;5833;-63
2023/12/17 09:42:29;;;;;;;;;;;;;;;8.50;58.54;99149.75;4185588;28;5717;-63
2023/12/17 09:44:32;;;;;;;;;;;;;;;8.51;58.39;99147.00;4185607;28;6581;-64
2023/12/17 09:46:36;;;;;;;;;;;;;;;8.51;58.19;99147.00;4185666;28;6931;-64
2023/12/17 09:48:38;;;;;;;;;;;;;;;8.52;58.21;99153.09;4185220;28;5716;-64
2023/12/17 09:50:45;;;;;;;;;;;;;;;8.46;57.89;99144.72;4185451;28;7015;-64
2023/12/17 09:52:48;;;;;;;;;;;;;;;8.48;57.93;99141.94;4185557;28;5104;-65
2023/12/17 09:54:52;;;;;;;;;;;;;;;8.52;58.04;99140.75;4185466;28;5709;-65
2023/12/17 09:56:55;;;;;;;;;;;;;;;8.53;57.90;99145.06;4185181;28;5725;-64
2023/12/17 09:58:57;;;;;;;;;;;;;;;8.50;57.87;99140.06;4184783;28;5733;-63
2023/12/17 10:01:00;;;;;;;;;;;;;;;8.46;57.87;99139.44;4185344;28;5717;-63
2023/12/17 10:03:04;;;;;;;;;;;;;;;8.45;57.96;99135.13;4185400;28;5702;-63
2023/12/17 10:05:08;;;;;;;;;;;;;;;8.44;58.00;99136.09;4185024;28;5852;-63
2023/12/17 10:07:13;;;;;;;;;;;;;;;8.42;57.86;99132.75;4185546;28;5968;-63
2023/12/17 10:09:16;;;;;;;;;;;;;;;8.46;57.58;99138.59;4185089;28;5108;-64
2023/12/17 10:11:24;;;;;;;;;;;;;;;8.47;57.68;99135.00;4184179;28;7706;-64
2023/12/17 10:13:27;;;;;;;;;;;;;;;8.45;57.49;99126.38;4185242;28;5765;-63
2023/12/17 10:15:36;;;;;;;;;;;;;;;8.43;57.54;99138.84;4184963;28;5904;-63
2023/12/17 10:17:40;;;;;;;;;;;;;;;8.41;57.57;99130.22;4184948;28;5820;-63
2023/12/17 10:19:43;;;;;;;;;;;;;;;8.41;57.53;99120.53;4184651;28;5709;-63
2023/12/17 10:21:46;;;;;;;;;;;;;;;8.42;57.46;99116.94;4185185;28;5839;-64
2023/12/17 10:23:50;;;;;;;;;;;;;;;8.45;57.47;99114.03;4184943;28;5807;-64
2023/12/17 10:26:01;;;;;;;;;;;;;;;8.43;57.18;99115.97;4184693;28;5708;-63
2023/12/17 10:28:05;;;;;;;;;;;;;;;8.44;57.53;99111.53;4185095;28;5833;-64
2023/12/17 10:30:09;;;;;;;;;;;;;;;8.43;57.74;99115.13;4184760;28;5763;-64
2023/12/17 10:32:13;;;;;;;;;;;;;;;8.39;57.36;99111.06;4184841;28;5832;-63
2023/12/17 10:34:19;;;;;;;;;;;;;;;8.41;57.26;99111.78;4184611;28;5867;-63
2023/12/17 10:36:23;;;;;;;;;;;;;;;8.43;57.64;99107.22;4184905;28;5839;-64
2023/12/17 10:38:27;;;;;;;;;;;;;;;8.47;57.34;99098.09;4184761;28;5745;-64
2023/12/17 10:40:30;;;;;;;;;;;;;;;8.52;57.49;99090.66;4184702;28;5820;-64
2023/12/17 10:42:36;;;;;;;;;;;;;;;8.52;57.34;99090.66;4184688;28;5718;-64
2023/12/17 10:44:42;;;;;;;;;;;;;;;8.52;57.36;99092.47;4184719;28;5714;-63
2023/12/17 10:46:46;;;;;;;;;;;;;;;8.49;57.08;99096.16;4184593;28;5936;-63
2023/12/17 10:48:48;;;;;;;;;;;;;;;8.52;57.13;99095.09;4182908;28;5671;-64
2023/12/17 10:50:52;;;;;;;;;;;;;;;8.52;56.87;99095.94;4184697;28;5729;-63
2023/12/17 10:52:55;;;;;;;;;;;;;;;8.51;57.21;99089.00;4184605;28;5726;-64
2023/12/17 10:54:58;;;;;;;;;;;;;;;8.53;57.44;99097.63;4184440;28;5740;-63
2023/12/17 10:57:02;;;;;;;;;;;;;;;8.53;56.93;99091.50;4184491;28;5737;-63
2023/12/17 10:59:14;;;;;;;;;;;;;;;8.52;57.28;99085.41;4184352;28;5732;-63
2023/12/17 11:01:36;;;;;;;;;;;;;;;8.55;57.10;99084.31;4184202;28;5729;-63
2023/12/17 11:03:40;;;;;;;;;;;;;;;8.57;57.29;99085.00;4183307;28;5771;-64
2023/12/17 11:05:55;;;;;;;;;;;;;;;8.58;57.17;99078.78;4184155;28;6226;-64
2023/12/17 11:07:59;;;;;;;;;;;;;;;8.58;57.04;99079.59;4184340;28;5717;-64
2023/12/17 11:10:02;;;;;;;;;;;;;;;8.55;57.08;99079.88;4184372;28;5702;-64
2023/12/17 11:12:07;;;;;;;;;;;;;;;8.54;57.09;99078.19;4184121;28;5710;-63
2023/12/17 11:14:12;;;;;;;;;;;;;;;8.55;56.85;99077.22;4184222;28;5720;-63
2023/12/17 11:16:21;;;;;;;;;;;;;;;8.56;56.97;99080.69;4184301;28;5804;-63
2023/12/17 11:18:41;;;;;;;;;;;;;;;8.57;56.95;99071.81;4184123;28;5853;-63
2023/12/17 11:20:48;;;;;;;;;;;;;;;8.59;57.17;99077.81;4167526;28;5862;-63
2023/12/17 11:22:50;;;;;;;;;;;;;;;8.58;56.68;99071.69;4167535;28;5824;-63
2023/12/17 11:24:57;;;;;;;;;;;;;;;8.59;56.95;99080.44;4180106;28;6390;-64
2023/12/17 11:27:00;;;;;;;;;;;;;;;8.61;56.84;99073.28;4184157;28;5726;-64
2023/12/17 11:29:41;;;;;;;;;;;;;;;8.64;57.15;99073.00;4183963;28;5728;-64
2023/12/17 11:31:44;;;;;;;;;;;;;;;8.59;56.82;99068.09;4184048;28;5741;-64
2023/12/17 11:33:49;;;;;;;;;;;;;;;8.56;57.10;99071.00;4183921;28;5776;-64
2023/12/17 11:35:53;;;;;;;;;;;;;;;8.55;56.87;99071.97;4184012;28;5792;-64
2023/12/17 11:37:57;;;;;;;;;;;;;;;8.57;57.12;99067.38;4184020;28;5714;-65
2023/12/17 11:40:00;;;;;;;;;;;;;;;8.54;56.73;99059.75;4183956;28;5713;-64
2023/12/17 11:42:03;;;;;;;;;;;;;;;8.53;57.08;99059.88;4183550;28;5846;-64
2023/12/17 11:44:06;;;;;;;;;;;;;;;8.54;56.97;99057.09;4183767;28;5710;-63
2023/12/17 11:46:13;;;;;;;;;;;;;;;8.60;57.12;99053.94;4183794;28;5720;-64
2023/12/17 11:48:18;;;;;;;;;;;;;;;8.59;56.88;99052.28;4183814;28;5760;-64
2023/12/17 11:50:23;;;;;;;;;;;;;;;8.62;56.70;99054.69;4183677;28;5709;-63
2023/12/17 11:52:26;;;;;;;;;;;;;;;8.63;56.99;99050.25;4183940;28;5717;-63
2023/12/17 11:54:28;;;;;;;;;;;;;;;8.62;56.98;99053.84;4181930;28;5655;-63
2023/12/17 11:56:32;;;;;;;;;;;;;;;8.61;56.81;99052.19;4176221;28;5721;-63
2023/12/17 11:58:45;;;;;;;;;;;;;;;8.59;57.01;99054.06;4183692;28;5702;-64
2023/12/17 12:01:05;;;;;;;;;;;;;;;8.56;56.65;99043.78;4183588;28;5709;-64
2023/12/17 12:03:09;;;;;;;;;;;;;;;8.60;57.01;99051.31;4183858;28;5880;-64
2023/12/17 12:05:16;;;;;;;;;;;;;;;8.63;57.08;99051.09;4183525;28;5714;-63
2023/12/17 12:07:21;;;;;;;;;;;;;;;8.57;56.95;99040.19;4183630;28;5796;-65
2023/12/17 12:09:24;;;;;;;;;;;;;;;8.59;57.02;99039.09;4183878;28;5716;-63
2023/12/17 12:11:32;;;;;;;;;;;;;;;8.61;57.03;99042.47;4183615;28;5841;-63
2023/12/17 12:13:37;;;;;;;;;;;;;;;8.61;56.90;99033.72;4183995;28;5718;-62
2023/12/17 12:15:41;;;;;;;;;;;;;;;8.63;56.78;99035.25;4183725;28;5714;-63
2023/12/17 12:17:44;;;;;;;;;;;;;;;8.62;56.72;99038.88;4183504;28;5708;-63
2023/12/17 12:19:50;;;;;;;;;;;;;;;8.63;56.66;99032.63;4179256;28;5145;-63
2023/12/17 12:21:53;;;;;;;;;;;;;;;8.65;56.99;99038.59;4178354;28;7749;-63
2023/12/17 12:24:00;;;;;;;;;;;;;;;8.67;56.81;99031.41;4181738;28;5829;-63
2023/12/17 12:26:05;;;;;;;;;;;;;;;8.66;56.93;99032.38;4180251;28;5863;-63
2023/12/17 12:28:16;;;;;;;;;;;;;;;8.68;56.84;99037.50;4180979;28;6522;-63
2023/12/17 12:30:26;;;;;;;;;;;;;;;8.68;56.72;99035.72;4181815;28;5080;-63
2023/12/17 12:32:29;;;;;;;;;;;;;;;8.67;57.09;99026.13;4174015;28;7711;-63
2023/12/17 12:34:36;;;;;;;;;;;;;;;8.68;56.88;99033.06;4182667;28;5899;-63
2023/12/17 12:36:43;;;;;;;;;;;;;;;8.69;56.73;99039.19;4185079;28;5824;-64
2023/12/17 12:38:58;;;;;;;;;;;;;;;8.63;56.76;99031.78;4182537;28;5697;-63
2023/12/17 12:41:10;;;;;;;;;;;;;;;8.61;57.02;99029.28;4181555;28;5721;-63
2023/12/17 12:43:12;;;;;;;;;;;;;;;8.62;56.89;99025.69;4184880;28;5804;-63
2023/12/17 12:45:15;;;;;;;;;;;;;;;8.64;56.61;99026.38;4184826;28;5828;-63
2023/12/17 12:47:20;;;;;;;;;;;;;;;8.62;57.08;99028.31;4183315;28;6448;-63
2023/12/17 12:49:23;;;;;;;;;;;;;;;8.66;57.21;99036.81;4184263;28;5788;-63
2023/12/17 12:51:27;;;;;;;;;;;;;;;8.68;56.70;99032.22;4176595;28;5788;-63
2023/12/17 12:53:32;;;;;;;;;;;;;;;8.65;56.82;99025.41;4184801;28;6308;-63
2023/12/17 12:55:35;;;;;;;;;;;;;;;8.62;56.87;99017.78;4184537;28;6049;-63
2023/12/17 12:57:39;;;;;;;;;;;;;;;8.69;56.77;99013.66;4184273;28;5808;-63
2023/12/17 12:59:42;;;;;;;;;;;;;;;8.72;56.91;99016.06;4184828;28;6611;-63
2023/12/17 13:01:45;;;;;;;;;;;;;;;8.74;57.05;99006.22;4184493;28;5938;-63
2023/12/17 13:03:49;;;;;;;;;;;;;;;8.77;56.93;99006.91;4181460;28;5954;-63
2023/12/17 13:05:51;;;;;;;;;;;;;;;8.80;56.84;99011.91;4179757;28;5705;-62
2023/12/17 13:07:54;;;;;;;;;;;;;;;8.79;56.78;99011.09;4184244;28;6535;-63
2023/12/17 13:09:57;;;;;;;;;;;;;;;8.79;57.04;99007.63;4184603;28;5099;-63
2023/12/17 13:12:12;;;;;;;;;;;;;;;8.80;57.18;99004.84;4184547;28;7730;-64
2023/12/17 13:14:17;;;;;;;;;;;;;;;8.77;56.85;98999.84;4184150;28;5808;-66
2023/12/17 13:16:20;;;;;;;;;;;;;;;8.75;57.05;98997.31;4184197;28;6408;-74
2023/12/17 13:18:23;;;;;;;;;;;;;;;8.78;57.12;98995.41;4183986;28;5705;-75
2023/12/17 13:20:26;;;;;;;;;;;;;;;8.77;56.86;99001.63;4184133;28;6442;-66
2023/12/17 13:22:29;;;;;;;;;;;;;;;8.79;56.72;99002.34;4183619;28;5732;-70
2023/12/17 13:24:32;;;;;;;;;;;;;;;8.80;56.92;99001.38;4178903;28;5736;-73
2023/12/17 13:26:37;;;;;;;;;;;;;;;8.82;57.13;99004.72;4184440;28;5802;-75
2023/12/17 13:28:40;;;;;;;;;;;;;;;8.80;56.97;98994.28;4184301;28;5811;-69
2023/12/17 13:30:45;;;;;;;;;;;;;;;8.77;56.95;98999.00;4184428;28;5773;-69
2023/12/17 13:32:48;;;;;;;;;;;;;;;8.76;57.03;99000.81;4184296;28;5705;-76
2023/12/17 13:34:51;;;;;;;;;;;;;;;8.75;56.77;98994.69;4183980;28;5713;-68
2023/12/17 13:36:54;;;;;;;;;;;;;;;8.75;56.77;98997.31;4184097;28;5846;-68
2023/12/17 13:38:57;;;;;;;;;;;;;;;8.78;56.96;98988.31;4184087;28;5725;-71
2023/12/17 13:41:00;;;;;;;;;;;;;;;8.75;56.95;98980.66;4183730;28;5088;-73
2023/12/17 13:43:03;;;;;;;;;;;;;;;8.75;56.97;98980.66;4182596;28;7742;-73
2023/12/17 13:45:07;;;;;;;;;;;;;;;8.74;56.77;98981.63;4183869;28;5795;-71
2023/12/17 13:47:11;;;;;;;;;;;;;;;8.71;57.03;98977.44;4184019;28;5859;-63
2023/12/17 13:49:14;;;;;;;;;;;;;;;8.72;57.05;98979.13;4183499;28;5841;-68
2023/12/17 13:51:18;;;;;;;;;;;;;;;8.78;57.08;98979.56;4184131;28;5765;-76
2023/12/17 13:53:21;;;;;;;;;;;;;;;8.80;57.22;98983.75;4182731;28;5713;-69
2023/12/17 13:55:27;;;;;;;;;;;;;;;8.83;57.19;98987.91;4166351;28;5833;-64
2023/12/17 13:57:30;;;;;;;;;;;;;;;8.82;56.78;98986.25;4171304;28;5855;-74
2023/12/17 13:59:33;;;;;;;;;;;;;;;8.75;57.17;98985.94;4172282;28;5714;-67
2023/12/17 14:01:36;;;;;;;;;;;;;;;8.78;57.30;98995.41;4173986;28;5792;-67
2023/12/17 14:03:40;;;;;;;;;;;;;;;8.79;56.90;98986.50;4182569;28;5712;-76
2023/12/17 14:05:43;;;;;;;;;;;;;;;8.76;57.16;98979.69;4184298;28;5833;-70
2023/12/17 14:07:47;;;;;;;;;;;;;;;8.80;57.07;98990.81;4185179;28;5716;-68
2023/12/17 14:09:50;;;;;;;;;;;;;;;8.77;56.89;98994.56;4185122;28;5714;-71
2023/12/17 14:11:53;;;;;;;;;;;;;;;8.79;56.92;98991.78;4185088;28;5741;-70
2023/12/17 14:13:55;;;;;;;;;;;;;;;8.79;57.27;98994.44;4185188;28;5788;-73
2023/12/17 14:15:58;;;;;;;;;;;;;;;8.80;56.97;98994.28;4178860;28;5915;-72
2023/12/17 14:18:01;;;;;;;;;;;;;;;8.81;56.94;98989.84;4183902;28;5844;-65
2023/12/17 14:20:06;;;;;;;;;;;;;;;8.81;57.17;98995.13;4176999;28;6586;-70
2023/12/17 14:22:17;;;;;;;;;;;;;;;8.78;57.23;98990.94;4182580;28;5705;-72
2023/12/17 14:24:20;;;;;;;;;;;;;;;8.75;57.38;98996.50;4177582;28;6201;-71
2023/12/17 14:26:23;;;;;;;;;;;;;;;8.74;57.14;98990.38;4177378;28;5823;-69
2023/12/17 14:28:26;;;;;;;;;;;;;;;8.72;57.12;98986.19;4184104;28;5737;-73
2023/12/17 14:30:29;;;;;;;;;;;;;;;8.73;57.29;98982.59;4177814;28;6044;-75
2023/12/17 14:32:32;;;;;;;;;;;;;;;8.73;57.26;98983.44;4178564;28;5945;-66
2023/12/17 14:34:37;;;;;;;;;;;;;;;8.72;57.38;98981.78;4197594;28;5699;-73
2023/12/17 14:36:42;;;;;;;;;;;;;;;8.73;57.64;98983.44;4185386;28;5838;-70
2023/12/17 14:38:45;;;;;;;;;;;;;;;8.77;57.42;98983.16;4182461;28;8380;-65
2023/12/17 14:40:46;;;;;;;;;;;;;;;8.75;57.06;98991.22;4185088;28;5709;-67
2023/12/17 14:42:49;;;;;;;;;;;;;;;8.71;57.18;98987.97;4184972;28;5729;-63
2023/12/17 14:44:52;;;;;;;;;;;;;;;8.72;57.13;98981.78;4185694;28;5737;-64
2023/12/17 14:46:57;;;;;;;;;;;;;;;8.72;57.10;98984.41;4190626;28;5833;-67
2023/12/17 14:48:59;;;;;;;;;;;;;;;8.71;57.48;98990.63;4178154;28;5813;-64
2023/12/17 14:51:02;;;;;;;;;;;;;;;8.75;57.46;98985.94;4184083;28;5830;-71
2023/12/17 14:53:06;;;;;;;;;;;;;;;8.72;57.31;98979.13;4180715;28;5720;-74
2023/12/17 14:55:09;;;;;;;;;;;;;;;8.71;57.31;98979.22;4183463;28;5721;-65
2023/12/17 14:57:13;;;;;;;;;;;;;;;8.72;57.07;98976.50;4188134;28;6399;-63
2023/12/17 14:59:16;;;;;;;;;;;;;;;8.72;57.42;98976.50;4189370;28;5854;-62
2023/12/17 15:01:19;;;;;;;;;;;;;;;8.74;57.37;98979.00;4183204;28;6008;-64
2023/12/17 15:03:33;;;;;;;;;;;;;;;8.78;57.44;98984.84;4182262;28;5799;-77
2023/12/17 15:05:36;;;;;;;;;;;;;;;8.74;57.32;98985.09;4186328;28;5698;-77
2023/12/17 15:07:38;;;;;;;;;;;;;;;8.71;57.17;98985.34;4185204;28;5716;-78
2023/12/17 15:09:43;;;;;;;;;;;;;;;8.69;57.34;98989.06;4188549;28;5717;-66
2023/12/17 15:11:46;;;;;;;;;;;;;;;8.68;57.35;98985.59;4173344;28;5792;-67
2023/12/17 15:13:49;;;;;;;;;;;;;;;8.69;57.09;98989.91;4182817;28;5888;-74
2023/12/17 15:15:53;;;;;;;;;;;;;;;8.72;57.22;98983.53;4178786;28;5800;-70
2023/12/17 15:17:56;;;;;;;;;;;;;;;8.69;57.14;98987.28;4184219;28;5787;-68
2023/12/17 15:19:59;;;;;;;;;;;;;;;8.70;57.40;98988.94;4183629;28;6513;-69
2023/12/17 15:22:02;;;;;;;;;;;;;;;8.72;57.59;98986.19;4180939;28;5791;-69
2023/12/17 15:24:05;;;;;;;;;;;;;;;8.70;57.24;98993.38;4186188;28;5672;-70
2023/12/17 15:26:10;;;;;;;;;;;;;;;8.69;57.41;98987.28;4189222;28;5695;-68
2023/12/17 15:28:13;;;;;;;;;;;;;;;8.68;57.55;98988.25;4182337;28;5673;-67
2023/12/17 15:30:16;;;;;;;;;;;;;;;8.70;57.21;98988.94;4190448;28;5790;-69
2023/12/17 15:32:19;;;;;;;;;;;;;;;8.65;57.34;98983.22;4187164;28;5762;-68
2023/12/17 15:34:22;;;;;;;;;;;;;;;8.65;57.32;98991.16;4182847;28;5959;-69
2023/12/17 15:36:25;;;;;;;;;;;;;;;8.66;57.62;98987.53;4173758;28;5920;-68
2023/12/17 15:38:29;;;;;;;;;;;;;;;8.64;57.27;98989.47;4179001;28;7279;-73
2023/12/17 15:40:32;;;;;;;;;;;;;;;8.64;57.45;98989.47;4177435;28;5891;-69
2023/12/17 15:42:37;;;;;;;;;;;;;;;8.65;57.44;98985.88;4178632;28;5744;-71
2023/12/17 15:44:39;;;;;;;;;;;;;;;8.68;57.68;98990.88;4186189;28;5787;-70
2023/12/17 15:46:42;;;;;;;;;;;;;;;8.64;57.33;98988.63;4188252;28;5851;-70
2023/12/17 15:48:45;;;;;;;;;;;;;;;8.64;57.33;98989.47;4182438;28;5717;-70
2023/12/17 15:50:48;;;;;;;;;;;;;;;8.63;57.27;98987.81;4183231;28;5697;-70
2023/12/17 15:52:51;;;;;;;;;;;;;;;8.62;57.63;98991.41;4187699;28;5709;-69
2023/12/17 15:54:53;;;;;;;;;;;;;;;8.58;57.51;98995.25;4185696;28;5728;-68
2023/12/17 15:56:55;;;;;;;;;;;;;;;8.54;57.42;98991.19;4187118;28;5792;-70
2023/12/17 15:59:00;;;;;;;;;;;;;;;8.55;57.35;98990.22;4182374;28;5796;-69
2023/12/17 16:01:03;;;;;;;;;;;;;;;8.56;57.49;98997.16;4182729;28;5892;-72
2023/12/17 16:03:06;;;;;;;;;;;;;;;8.59;57.42;98989.00;4182841;28;6391;-72
2023/12/17 16:05:08;;;;;;;;;;;;;;;8.58;57.52;98995.25;4187370;28;6387;-70
2023/12/17 16:07:12;;;;;;;;;;;;;;;8.58;57.48;98994.41;4188347;28;5790;-71
2023/12/17 16:09:16;;;;;;;;;;;;;;;8.58;57.24;98995.25;4189612;28;5815;-68
2023/12/17 16:11:21;;;;;;;;;;;;;;;8.60;57.55;98990.66;4185609;28;5804;-71
2023/12/17 16:13:24;;;;;;;;;;;;;;;8.61;57.47;98995.00;4186467;28;5754;-71
2023/12/17 16:15:28;;;;;;;;;;;;;;;8.61;57.24;98995.00;4184580;28;5788;-71
2023/12/17 16:17:30;;;;;;;;;;;;;;;8.62;57.31;98991.41;4186477;28;5704;-68
2023/12/17 16:19:33;;;;;;;;;;;;;;;8.60;57.35;98993.31;4183675;28;5705;-70
2023/12/17 16:21:37;;;;;;;;;;;;;;;8.61;57.40;98995.00;4189726;28;5713;-68
2023/12/17 16:23:41;;;;;;;;;;;;;;;8.60;57.50;98997.75;4185531;28;5705;-72
2023/12/17 16:25:44;;;;;;;;;;;;;;;8.59;57.47;99001.34;4179190;28;5939;-71
2023/12/17 16:27:48;;;;;;;;;;;;;;;8.61;57.59;99004.72;4181142;28;5698;-70
2023/12/17 16:29:52;;;;;;;;;;;;;;;8.60;57.04;99003.84;4182814;28;5717;-67
2023/12/17 16:31:56;;;;;;;;;;;;;;;8.60;57.50;99003.84;4184353;28;5749;-70
2023/12/17 16:34:01;;;;;;;;;;;;;;;8.57;57.24;99004.13;4185636;28;5704;-70
2023/12/17 16:36:05;;;;;;;;;;;;;;;8.59;57.59;99007.47;4185826;28;5734;-68
2023/12/17 16:38:08;;;;;;;;;;;;;;;8.62;57.39;99009.88;4184784;28;5832;-71
2023/12/17 16:40:11;;;;;;;;;;;;;;;8.63;57.44;99003.63;4183919;28;6478;-73
2023/12/17 16:42:14;;;;;;;;;;;;;;;8.65;57.34;99008.75;4189568;28;5849;-70
2023/12/17 16:44:17;;;;;;;;;;;;;;;8.66;57.08;99003.34;4187411;28;5752;-72
2023/12/17 16:46:20;;;;;;;;;;;;;;;8.64;57.37;99009.72;4185489;28;5808;-71
2023/12/17 16:48:24;;;;;;;;;;;;;;;8.58;57.26;99005.78;4185317;28;5780;-71
2023/12/17 16:50:27;;;;;;;;;;;;;;;8.53;57.19;99012.41;4179228;28;5849;-72
2023/12/17 16:52:29;;;;;;;;;;;;;;;8.53;57.46;99007.97;4182695;28;5730;-70
2023/12/17 16:54:32;;;;;;;;;;;;;;;8.51;57.51;99003.81;4190031;28;5826;-68
2023/12/17 16:56:36;;;;;;;;;;;;;;;8.50;57.41;99004.75;4185750;28;5730;-71
2023/12/17 16:58:39;;;;;;;;;;;;;;;8.52;57.60;99001.03;4185681;28;5733;-68
2023/12/17 17:00:42;;;;;;;;;;;;;;;8.55;57.47;98999.94;4173660;28;5713;-68
2023/12/17 17:02:45;;;;;;;;;;;;;;;8.59;57.34;99004.81;4182015;28;5892;-67
2023/12/17 17:04:49;;;;;;;;;;;;;;;8.60;57.78;99003.84;4184579;28;5701;-69
2023/12/17 17:06:52;;;;;;;;;;;;;;;8.60;57.26;99003.84;4182386;28;5724;-72
2023/12/17 17:08:55;;;;;;;;;;;;;;;8.61;57.62;99010.81;4174955;28;5750;-68
2023/12/17 17:10:58;;;;;;;;;;;;;;;8.62;57.52;99016.94;4184121;28;5714;-72
2023/12/17 17:13:09;;;;;;;;;;;;;;;8.63;57.42;99011.53;4183550;28;5712;-71
2023/12/17 17:15:12;;;;;;;;;;;;;;;8.62;57.33;99020.41;4185771;28;5721;-72
2023/12/17 17:17:15;;;;;;;;;;;;;;;8.60;57.35;99011.75;4185480;28;5898;-71
2023/12/17 17:19:18;;;;;;;;;;;;;;;8.57;57.58;99014.66;4184317;28;5729;-71
2023/12/17 17:21:23;;;;;;;;;;;;;;;8.55;57.80;99010.47;4184848;28;5709;-69
2023/12/17 17:23:26;;;;;;;;;;;;;;;8.57;57.88;99022.56;4185713;28;5815;-70
2023/12/17 17:25:29;;;;;;;;;;;;;;;8.57;57.67;99030.47;4177772;28;5717;-70
2023/12/17 17:27:32;;;;;;;;;;;;;;;8.51;57.52;99025.72;4185702;28;5840;-71
2023/12/17 17:29:41;;;;;;;;;;;;;;;8.52;57.56;99021.28;4185602;28;5845;-70
2023/12/17 17:32:05;;;;;;;;;;;;;;;8.54;57.69;99020.19;4184344;28;5710;-71
2023/12/17 17:34:27;;;;;;;;;;;;;;;8.55;57.86;99021.03;4181918;28;6571;-72
2023/12/17 17:36:50;;;;;;;;;;;;;;;8.57;57.77;99024.38;4180109;28;6060;-69
2023/12/17 17:38:56;;;;;;;;;;;;;;;8.53;57.72;99017.69;4178955;28;5961;-69
2023/12/17 17:40:58;;;;;;;;;;;;;;;8.53;57.87;99020.31;4191296;28;5746;-70
2023/12/17 17:43:01;;;;;;;;;;;;;;;8.53;57.98;99021.16;4185410;28;5816;-71
2023/12/17 17:45:05;;;;;;;;;;;;;;;8.52;57.67;99019.50;4185039;28;5784;-72
2023/12/17 17:47:08;;;;;;;;;;;;;;;8.51;57.74;99014.34;4185385;28;5787;-73
2023/12/17 17:49:10;;;;;;;;;;;;;;;8.49;57.72;99016.25;4176263;28;5813;-74
2023/12/17 17:51:13;;;;;;;;;;;;;;;8.46;57.60;99019.97;4182730;28;5740;-72
2023/12/17 17:53:18;;;;;;;;;;;;;;;8.45;57.66;99016.50;4179379;28;5720;-69
2023/12/17 17:55:21;;;;;;;;;;;;;;;8.43;57.63;99017.59;4180433;28;5716;-73
2023/12/17 17:57:24;;;;;;;;;;;;;;;8.39;57.58;99017.03;4179636;28;5587;-72
2023/12/17 17:59:27;;;;;;;;;;;;;;;8.34;57.55;99023.59;4177688;28;8567;-73
2023/12/17 18:01:33;;;;;;;;;;;;;;;8.31;57.72;99023.84;4175233;28;5813;-74
2023/12/17 18:03:36;;;;;;;;;;;;;;;8.35;57.67;99027.91;4183591;28;5892;-72
2023/12/17 18:05:38;;;;;;;;;;;;;;;8.37;57.63;99031.25;4181518;28;6630;-72
2023/12/17 18:07:42;;;;;;;;;;;;;;;8.37;57.83;99023.34;4182778;28;5701;-73
2023/12/17 18:09:46;;;;;;;;;;;;;;;8.34;57.72;99032.34;4181423;28;6113;-71
2023/12/17 18:11:49;;;;;;;;;;;;;;;8.32;57.67;99025.50;4179341;28;5717;-75
2023/12/17 18:13:54;;;;;;;;;;;;;;;8.35;57.93;99033.19;4183943;28;5827;-73
2023/12/17 18:15:57;;;;;;;;;;;;;;;8.28;58.00;99032.84;4177036;28;5802;-79
2023/12/17 18:18:00;;;;;;;;;;;;;;;8.29;57.95;99033.66;4182779;28;5714;-73
2023/12/17 18:20:05;;;;;;;;;;;;;;;8.27;58.09;99030.28;4182933;28;6410;-70
2023/12/17 18:22:08;;;;;;;;;;;;;;;8.27;57.83;99030.28;4182435;28;6418;-68
2023/12/17 18:24:11;;;;;;;;;;;;;;;8.32;57.97;99033.41;4183839;28;5705;-72
2023/12/17 18:26:22;;;;;;;;;;;;;;;8.35;58.04;99031.38;4183904;28;5717;-70
2023/12/17 18:28:26;;;;;;;;;;;;;;;8.39;58.14;99047.81;4183777;28;5859;-75
2023/12/17 18:30:29;;;;;;;;;;;;;;;8.42;58.08;99039.66;4181707;28;5725;-77
2023/12/17 18:32:31;;;;;;;;;;;;;;;8.45;57.87;99044.66;4182496;28;5084;-74
2023/12/17 18:34:35;;;;;;;;;;;;;;;8.44;57.92;99046.47;4175730;28;5730;-84
2023/12/17 18:36:39;;;;;;;;;;;;;;;8.46;57.75;99048.97;4182376;28;5636;-84
2023/12/17 18:38:44;;;;;;;;;;;;;;;8.43;58.01;99050.06;4184762;28;5795;-85
2023/12/17 18:40:48;;;;;;;;;;;;;;;8.42;58.12;99039.66;4184223;28;5794;-82
2023/12/17 18:42:54;;;;;;;;;;;;;;;8.42;58.07;99037.00;4184717;28;5717;-82
2023/12/17 18:44:57;;;;;;;;;;;;;;;8.41;58.02;99037.97;4177907;28;5717;-78
2023/12/17 18:47:00;;;;;;;;;;;;;;;8.41;57.90;99035.34;4182513;28;5724;-85
2023/12/17 18:49:03;;;;;;;;;;;;;;;8.41;58.04;99030.06;4183335;28;5709;-70
2023/12/17 18:51:06;;;;;;;;;;;;;;;8.41;58.10;99037.97;4182440;28;5712;-70
2023/12/17 18:53:12;;;;;;;;;;;;;;;8.46;58.07;99038.44;4183195;28;5721;-72
2023/12/17 18:55:15;;;;;;;;;;;;;;;8.44;57.88;99029.81;4180247;28;5855;-75
2023/12/17 18:57:18;;;;;;;;;;;;;;;8.42;57.90;99031.75;4181690;28;5808;-74
2023/12/17 18:59:22;;;;;;;;;;;;;;;8.41;58.13;99033.53;4182990;28;5849;-78
2023/12/17 19:01:26;;;;;;;;;;;;;;;8.39;58.16;99037.28;4183542;28;6510;-91
2023/12/17 19:03:29;;;;;;;;;;;;;;;8.37;58.12;99039.16;4174518;28;5984;-75